Time;durP1;ratioP1;P1;durP2;ratioP2;P2;SDS_P1;SDS_P2;PMS_P1;PMS_P2;Temp;Humidity;BMP_temperature;BMP_pressure;BME280_temperature;BME280_humidity;BME280_pressure;Samples;Min_cycle;Max_cycle;Signal;HPM_P1;HPM_P2
2022/09/30 00:01:51;;;;;;;16.73;11.85;;;;;;;5.62;90.88;100722.84;5028479;28;20089;-70
2022/09/30 00:04:24;;;;;;;16.30;11.63;;;;;;;5.60;90.83;100722.84;5029276;28;20096;-70
2022/09/30 00:06:53;;;;;;;14.77;11.70;;;;;;;5.57;90.96;100717.66;5027967;28;20048;-71
2022/09/30 00:09:20;;;;;;;15.20;12.50;;;;;;;5.51;90.93;100721.22;5026823;28;20049;-71
2022/09/30 00:11:48;;;;;;;16.02;11.85;;;;;;;5.50;91.15;100718.59;5026991;28;20088;-70
2022/09/30 00:14:20;;;;;;;21.02;12.32;;;;;;;5.48;91.06;100726.47;5026977;28;20046;-70
2022/09/30 00:16:51;;;;;;;15.07;11.85;;;;;;;5.46;91.22;100727.38;5021401;28;20054;-70
2022/09/30 00:19:19;;;;;;;21.80;12.68;;;;;;;5.42;91.17;100716.94;5032292;28;20047;-71
2022/09/30 00:21:46;;;;;;;20.23;12.10;;;;;;;5.39;91.31;100730.03;5032944;28;20586;-71
2022/09/30 00:24:13;;;;;;;18.17;12.95;;;;;;;5.39;91.32;100732.66;5031598;28;20046;-71
2022/09/30 00:26:41;;;;;;;17.40;11.63;;;;;;;5.37;91.51;100733.56;5032179;28;20035;-71
2022/09/30 00:29:09;;;;;;;16.33;12.60;;;;;;;5.35;91.38;100733.59;5032165;28;20038;-71
2022/09/30 00:31:37;;;;;;;17.35;12.68;;;;;;;5.33;91.52;100729.28;5031823;28;20056;-71
2022/09/30 00:34:10;;;;;;;14.82;12.65;;;;;;;5.32;91.54;100732.75;5031275;28;20775;-71
2022/09/30 00:36:49;;;;;;;19.48;12.55;;;;;;;5.28;91.33;100734.53;5025807;28;20042;-70
2022/09/30 00:39:24;;;;;;;17.60;12.15;;;;;;;5.25;91.41;100734.56;5025188;28;20038;-71
2022/09/30 00:41:56;;;;;;;16.33;12.88;;;;;;;5.23;91.31;100737.22;5021450;28;20100;-73
2022/09/30 00:44:56;;;;;;;18.73;11.90;;;;;;;5.20;91.40;100731.13;5027216;28;20145;-71
2022/09/30 00:47:42;;;;;;;17.63;11.77;;;;;;;5.19;91.29;100735.50;5024689;28;20046;-70
2022/09/30 00:50:25;;;;;;;15.85;12.43;;;;;;;5.15;91.42;100739.00;5028669;28;20042;-70
2022/09/30 00:53:11;;;;;;;16.42;12.63;;;;;;;5.12;91.24;100736.44;5031910;28;20038;-71
2022/09/30 00:55:52;;;;;;;18.73;12.93;;;;;;;5.09;91.26;100739.06;5030117;28;20070;-70
2022/09/30 00:58:34;;;;;;;21.50;11.85;;;;;;;5.07;91.38;100738.22;5022726;28;20045;-71
2022/09/30 01:01:02;;;;;;;17.83;12.65;;;;;;;5.03;91.40;100732.16;5031008;28;20050;-70
2022/09/30 01:03:41;;;;;;;18.27;12.30;;;;;;;5.02;91.45;100729.56;5032115;28;20034;-70
2022/09/30 01:06:09;;;;;;;19.95;13.20;;;;;;;4.97;91.42;100724.38;5031487;28;20552;-71
2022/09/30 01:08:38;;;;;;;17.27;12.48;;;;;;;4.95;91.39;100731.38;5030225;28;20042;-69
2022/09/30 01:11:06;;;;;;;20.20;13.48;;;;;;;4.92;91.41;100732.25;5028450;28;20050;-70
2022/09/30 01:13:39;;;;;;;19.40;12.98;;;;;;;4.91;91.55;100734.88;5030983;28;20512;-70
2022/09/30 01:16:53;;;;;;;18.05;12.57;;;;;;;4.91;91.61;100738.38;5032021;28;20048;-70
2022/09/30 01:19:40;;;;;;;19.73;12.23;;;;;;;4.91;91.51;100734.88;5028552;28;20112;-70
2022/09/30 01:22:31;;;;;;;21.08;12.40;;;;;;;4.91;91.59;100738.38;5025787;28;20085;-70
2022/09/30 01:25:23;;;;;;;17.58;12.38;;;;;;;4.90;91.65;100735.75;5024355;28;20049;-70
2022/09/30 01:28:30;;;;;;;16.38;12.27;;;;;;;4.88;91.71;100734.91;5019404;28;20041;-70
2022/09/30 01:31:22;;;;;;;17.67;12.73;;;;;;;4.84;91.67;100730.59;5028998;28;20057;-70
2022/09/30 01:34:20;;;;;;;16.45;12.70;;;;;;;4.82;91.58;100734.06;5032177;28;20060;-70
2022/09/30 01:37:31;;;;;;;14.48;11.95;;;;;;;4.81;91.60;100729.72;5030492;28;20046;-70
2022/09/30 01:40:27;;;;;;;18.08;12.05;;;;;;;4.77;91.53;100733.25;5029273;28;20038;-69
2022/09/30 01:43:30;;;;;;;16.33;12.43;;;;;;;4.76;91.71;100731.53;5028519;28;20038;-69
2022/09/30 01:46:13;;;;;;;18.52;13.07;;;;;;;4.73;91.62;100741.97;5027355;28;20046;-69
2022/09/30 01:48:56;;;;;;;21.42;13.07;;;;;;;4.73;91.57;100747.22;5027090;28;20052;-70
2022/09/30 01:51:33;;;;;;;19.35;13.35;;;;;;;4.71;91.76;100741.13;5031360;28;20456;-69
2022/09/30 01:54:21;;;;;;;15.65;12.25;;;;;;;4.71;91.65;100740.25;5026580;28;20038;-69
2022/09/30 01:57:00;;;;;;;15.73;11.98;;;;;;;4.66;91.63;100732.47;5025654;28;20066;-69
2022/09/30 01:59:56;;;;;;;17.73;12.60;;;;;;;4.63;91.70;100733.34;5027684;28;20047;-69
2022/09/30 02:02:28;;;;;;;17.35;12.18;;;;;;;4.56;91.68;100726.44;5028468;28;20100;-69
2022/09/30 02:05:25;;;;;;;18.45;12.82;;;;;;;4.57;91.76;100729.94;5030964;28;20065;-69
2022/09/30 02:08:06;;;;;;;17.38;13.48;;;;;;;4.53;91.83;100731.66;5027681;28;20478;-70
2022/09/30 02:10:44;;;;;;;22.88;13.68;;;;;;;4.52;91.77;100743.00;5028812;28;20538;-70
2022/09/30 02:13:25;;;;;;;17.92;13.65;;;;;;;4.49;91.88;100737.81;5028097;28;20042;-70
2022/09/30 02:16:11;;;;;;;17.60;13.27;;;;;;;4.45;91.45;100736.09;5028528;28;20046;-70
2022/09/30 02:18:51;;;;;;;17.05;12.77;;;;;;;4.44;91.75;100734.34;5029886;28;20058;-70
2022/09/30 02:21:28;;;;;;;15.27;12.55;;;;;;;4.38;91.75;100744.84;5029397;28;20049;-70
2022/09/30 02:24:05;;;;;;;19.25;12.88;;;;;;;4.36;91.80;100742.25;5030744;28;20400;-71
2022/09/30 02:26:39;;;;;;;18.90;13.20;;;;;;;4.33;91.75;100737.88;5028352;28;20046;-70
2022/09/30 02:29:17;;;;;;;16.40;12.75;;;;;;;4.28;91.75;100730.97;5030336;28;20038;-70
2022/09/30 02:31:52;;;;;;;17.92;12.35;;;;;;;4.22;91.75;100729.28;5029385;28;20880;-69
2022/09/30 02:34:31;;;;;;;17.42;11.73;;;;;;;4.21;91.77;100740.59;5031805;28;20046;-69
2022/09/30 02:37:50;;;;;;;18.83;12.45;;;;;;;4.20;91.88;100750.16;5028694;28;20411;-69
2022/09/30 02:41:01;;;;;;;14.80;12.73;;;;;;;4.17;91.86;100746.69;5026345;28;20088;-70
2022/09/30 02:43:33;;;;;;;16.92;12.77;;;;;;;4.14;91.85;100752.81;5029776;28;20120;-70
2022/09/30 02:46:56;;;;;;;16.63;12.98;;;;;;;4.12;91.89;100758.91;5026214;28;20435;-70
2022/09/30 02:49:40;;;;;;;16.10;13.10;;;;;;;4.07;91.90;100756.28;5027397;28;20088;-69
2022/09/30 02:52:48;;;;;;;21.03;13.17;;;;;;;4.08;91.77;100754.56;5025679;28;20108;-69
2022/09/30 02:55:31;;;;;;;15.48;12.50;;;;;;;4.05;91.83;100747.63;5021910;28;20275;-70
2022/09/30 02:58:15;;;;;;;16.75;12.77;;;;;;;4.02;91.88;100751.09;5028894;28;20046;-69
2022/09/30 03:00:43;;;;;;;18.10;12.13;;;;;;;4.00;91.72;100747.66;5030280;28;20045;-69
2022/09/30 03:03:26;;;;;;;17.80;12.93;;;;;;;3.99;91.77;100747.66;5029143;28;20034;-72
2022/09/30 03:05:54;;;;;;;15.38;11.88;;;;;;;3.95;91.89;100746.78;5020087;28;20056;-71
2022/09/30 03:08:21;;;;;;;19.45;13.75;;;;;;;3.94;91.91;100742.44;5025899;28;20070;-72
2022/09/30 03:10:50;;;;;;;18.50;13.85;;;;;;;3.94;91.79;100746.81;5030232;28;20520;-71
2022/09/30 03:13:42;;;;;;;23.08;14.73;;;;;;;3.95;92.02;100748.56;5030096;28;20038;-69
2022/09/30 03:16:54;;;;;;;21.25;13.27;;;;;;;3.94;92.23;100757.25;5028838;28;20574;-70
2022/09/30 03:19:39;;;;;;;18.98;14.38;;;;;;;3.91;92.15;100762.47;5028906;28;20843;-70
2022/09/30 03:22:43;;;;;;;18.55;14.23;;;;;;;3.85;92.17;100755.53;5029300;28;20046;-70
2022/09/30 03:25:28;;;;;;;17.55;13.65;;;;;;;3.86;92.19;100762.47;5028804;28;20575;-71
2022/09/30 03:28:37;;;;;;;17.30;14.05;;;;;;;3.85;92.11;100766.84;5024660;28;20052;-71
2022/09/30 03:31:40;;;;;;;17.13;13.45;;;;;;;3.80;92.12;100772.94;5030846;28;20078;-69
2022/09/30 03:35:07;;;;;;;17.65;13.35;;;;;;;3.76;91.91;100772.09;5028716;28;20038;-69
2022/09/30 03:38:32;;;;;;;22.58;14.20;;;;;;;3.72;92.10;100771.22;5019496;28;20034;-69
2022/09/30 03:41:32;;;;;;;19.92;13.70;;;;;;;3.70;92.11;100770.38;5027890;28;20050;-70
2022/09/30 03:44:13;;;;;;;20.55;15.45;;;;;;;3.70;92.15;100770.38;5025551;28;20543;-70
2022/09/30 03:47:07;;;;;;;22.17;16.25;;;;;;;3.70;92.22;100780.81;5028476;28;21588;-70
2022/09/30 03:49:44;;;;;;;21.15;15.85;;;;;;;3.69;92.13;100783.41;5027698;28;20155;-69
2022/09/30 03:52:13;;;;;;;19.83;16.23;;;;;;;3.65;92.31;100785.16;5026679;28;20125;-69
2022/09/30 03:54:54;;;;;;;21.83;16.13;;;;;;;3.65;92.50;100779.09;5028364;28;20109;-70
2022/09/30 03:57:21;;;;;;;20.95;16.05;;;;;;;3.66;92.54;100786.88;5028499;28;20609;-70
2022/09/30 03:59:48;;;;;;;23.13;16.40;;;;;;;3.70;92.62;100792.97;5028214;28;20097;-70
2022/09/30 04:02:15;;;;;;;25.08;16.10;;;;;;;3.72;92.81;100789.47;5028399;28;20100;-71
2022/09/30 04:04:42;;;;;;;21.00;15.25;;;;;;;3.73;92.85;100796.41;5028119;28;20121;-70
2022/09/30 04:07:10;;;;;;;22.73;15.32;;;;;;;3.72;92.67;100779.03;5029421;28;20049;-71
2022/09/30 04:09:39;;;;;;;19.55;15.40;;;;;;;3.70;92.74;100775.59;5027290;28;20800;-70
2022/09/30 04:12:07;;;;;;;20.98;15.02;;;;;;;3.69;92.71;100793.81;5029572;28;20050;-70
2022/09/30 04:14:35;;;;;;;22.15;15.68;;;;;;;3.64;92.52;100787.78;5029829;28;20046;-70
2022/09/30 04:17:04;;;;;;;19.83;14.65;;;;;;;3.60;92.62;100805.16;5017904;28;20101;-70
2022/09/30 04:19:35;;;;;;;22.67;15.52;;;;;;;3.59;92.61;100811.25;5026161;28;20046;-70
2022/09/30 04:22:01;;;;;;;21.05;14.25;;;;;;;3.55;92.66;100813.00;5028586;28;20046;-70
2022/09/30 04:24:28;;;;;;;19.38;14.73;;;;;;;3.54;92.49;100833.84;5029484;28;20042;-71
2022/09/30 04:26:55;;;;;;;18.58;14.10;;;;;;;3.51;92.65;100826.03;5020670;28;20049;-69
2022/09/30 04:29:23;;;;;;;19.63;14.50;;;;;;;3.48;92.66;100832.09;5027370;28;20763;-70
2022/09/30 04:31:50;;;;;;;22.17;15.07;;;;;;;3.47;92.55;100829.50;5028491;28;20042;-70
2022/09/30 04:34:17;;;;;;;23.05;16.25;;;;;;;3.44;92.64;100827.78;5028447;28;20073;-69
2022/09/30 04:36:44;;;;;;;21.30;15.73;;;;;;;3.42;92.55;100832.13;5028278;28;20046;-70
2022/09/30 04:39:11;;;;;;;24.17;14.65;;;;;;;3.41;92.49;100839.06;5026926;28;20085;-70
2022/09/30 04:41:39;;;;;;;21.55;15.35;;;;;;;3.41;92.68;100851.22;5032233;28;20048;-72
2022/09/30 04:44:06;;;;;;;18.45;14.63;;;;;;;3.40;92.64;100852.09;5030136;28;20045;-72
2022/09/30 04:46:35;;;;;;;18.48;14.00;;;;;;;3.40;92.69;100854.69;5024380;28;20504;-70
2022/09/30 04:49:06;;;;;;;19.40;14.60;;;;;;;3.38;92.48;100846.00;5038155;28;20066;-70
2022/09/30 04:51:36;;;;;;;19.55;15.15;;;;;;;3.35;92.50;100856.47;5028643;28;20555;-70
2022/09/30 04:54:04;;;;;;;23.88;15.57;;;;;;;3.34;92.44;100860.78;5028671;28;20046;-71
2022/09/30 04:56:31;;;;;;;21.67;14.40;;;;;;;3.32;92.36;100862.50;5028476;28;20042;-70
2022/09/30 04:58:58;;;;;;;23.23;14.32;;;;;;;3.31;92.46;100860.78;5028096;28;20065;-71
2022/09/30 05:01:26;;;;;;;24.10;15.45;;;;;;;3.29;92.33;100867.75;5022461;28;20046;-70
2022/09/30 05:03:57;;;;;;;21.52;15.93;;;;;;;3.29;92.49;100861.66;5034055;28;20127;-70
2022/09/30 05:06:26;;;;;;;22.45;15.40;;;;;;;3.30;92.44;100866.88;5032079;28;20808;-70
2022/09/30 05:08:53;;;;;;;20.83;15.15;;;;;;;3.29;92.25;100870.34;5031132;28;20093;-70
2022/09/30 05:11:21;;;;;;;20.63;15.15;;;;;;;3.26;92.48;100871.19;5031414;28;20045;-70
2022/09/30 05:13:49;;;;;;;19.05;14.60;;;;;;;3.25;92.34;100876.41;5014227;28;20047;-70
2022/09/30 05:16:17;;;;;;;22.20;15.25;;;;;;;3.24;92.43;100880.78;5029351;28;20030;-71
2022/09/30 05:18:45;;;;;;;21.23;16.38;;;;;;;3.23;92.42;100885.97;5032552;28;20133;-70
2022/09/30 05:21:19;;;;;;;22.27;15.45;;;;;;;3.24;92.51;100888.59;5030554;28;20535;-70
2022/09/30 05:23:47;;;;;;;21.83;15.25;;;;;;;3.22;92.67;100879.00;5031308;28;20138;-70
2022/09/30 05:26:16;;;;;;;21.40;15.23;;;;;;;3.21;92.53;100883.38;5029287;28;20890;-71
2022/09/30 05:28:43;;;;;;;27.17;15.40;;;;;;;3.18;92.48;100878.16;5018078;28;20065;-71
2022/09/30 05:31:12;;;;;;;23.30;14.60;;;;;;;3.18;92.46;100872.09;5031328;28;20514;-71
2022/09/30 05:33:40;;;;;;;22.65;15.10;;;;;;;3.18;92.47;100872.94;5020817;28;20520;-70
2022/09/30 05:36:13;;;;;;;22.20;14.93;;;;;;;3.17;92.30;100872.94;5033717;28;20046;-70
2022/09/30 05:38:40;;;;;;;18.65;14.57;;;;;;;3.15;92.38;100885.97;5037168;28;20041;-70
2022/09/30 05:41:11;;;;;;;22.30;14.88;;;;;;;3.16;92.41;100890.28;5031765;28;20157;-70
2022/09/30 05:43:40;;;;;;;22.48;15.60;;;;;;;3.17;92.50;100889.44;5033164;28;20042;-70
2022/09/30 05:46:10;;;;;;;23.33;15.32;;;;;;;3.19;92.50;100881.63;5029638;28;20054;-71
2022/09/30 05:48:37;;;;;;;22.85;15.88;;;;;;;3.21;92.51;100890.31;5032692;28;20037;-70
2022/09/30 05:51:04;;;;;;;23.85;15.55;;;;;;;3.22;92.61;100894.66;5026330;28;20084;-70
2022/09/30 05:53:37;;;;;;;23.13;15.50;;;;;;;3.24;92.36;100896.41;5034768;28;20475;-70
2022/09/30 05:56:05;;;;;;;21.60;15.88;;;;;;;3.25;92.33;100897.25;5032282;28;20049;-71
2022/09/30 05:58:33;;;;;;;22.33;15.63;;;;;;;3.28;92.43;100904.22;5031644;28;20104;-71
2022/09/30 06:01:18;;;;;;;21.70;16.02;;;;;;;3.30;92.51;100908.56;5031058;28;20042;-71
2022/09/30 06:03:46;;;;;;;21.85;15.90;;;;;;;3.34;92.45;100906.84;5029958;28;20070;-70
2022/09/30 06:06:14;;;;;;;24.88;14.95;;;;;;;3.38;92.58;100916.38;5030152;28;20064;-70
2022/09/30 06:08:42;;;;;;;21.92;15.00;;;;;;;3.41;92.51;100913.78;5030640;28;20042;-70
2022/09/30 06:11:17;;;;;;;20.85;15.25;;;;;;;3.46;92.60;100932.03;5031398;28;20046;-70
2022/09/30 06:13:46;;;;;;;30.55;15.82;;;;;;;3.49;92.18;100935.50;5026920;28;20490;-70
2022/09/30 06:16:14;;;;;;;23.48;14.88;;;;;;;3.53;92.38;100932.03;5033601;28;20806;-70
2022/09/30 06:18:43;;;;;;;24.73;15.25;;;;;;;3.60;92.39;100937.25;5028759;28;20077;-70
2022/09/30 06:21:14;;;;;;;21.85;14.52;;;;;;;3.68;92.46;100936.38;5031199;28;20057;-70
2022/09/30 06:23:42;;;;;;;21.10;14.63;;;;;;;3.75;92.23;100941.59;5031098;28;20041;-70
2022/09/30 06:26:13;;;;;;;26.83;14.80;;;;;;;3.80;92.27;100943.31;5028913;28;20041;-70
2022/09/30 06:28:41;;;;;;;20.67;15.02;;;;;;;3.86;92.23;100956.38;5030934;28;20635;-70
2022/09/30 06:31:08;;;;;;;21.38;14.73;;;;;;;3.96;92.17;100957.22;5030419;28;20610;-70
2022/09/30 06:33:35;;;;;;;19.40;14.93;;;;;;;4.03;92.33;100958.94;5043154;28;20117;-70
2022/09/30 06:36:03;;;;;;;22.42;14.43;;;;;;;4.14;92.33;100960.66;5031359;28;20042;-68
2022/09/30 06:38:33;;;;;;;18.88;15.25;;;;;;;4.22;92.46;100951.09;5031383;28;20081;-69
2022/09/30 06:41:03;;;;;;;20.88;14.98;;;;;;;4.34;92.44;100953.66;5030974;28;20050;-69
2022/09/30 06:43:31;;;;;;;21.45;15.27;;;;;;;4.44;92.42;100959.75;5030918;28;20104;-69
2022/09/30 06:46:13;;;;;;;32.10;17.15;;;;;;;4.55;92.29;100957.09;5029467;28;20048;-68
2022/09/30 06:48:54;;;;;;;28.75;16.67;;;;;;;4.64;92.48;100949.22;5030629;28;20042;-68
2022/09/30 06:51:36;;;;;;;25.85;15.85;;;;;;;4.77;92.28;100951.78;5031484;28;20439;-68
2022/09/30 06:54:03;;;;;;;23.50;15.32;;;;;;;4.87;92.31;100953.47;5031367;28;20049;-68
2022/09/30 06:56:31;;;;;;;20.20;15.27;;;;;;;5.00;92.01;100956.88;5030458;28;20812;-68
2022/09/30 06:59:00;;;;;;;21.35;15.10;;;;;;;5.11;92.21;100960.31;5030802;28;20165;-68
2022/09/30 07:01:28;;;;;;;33.20;16.77;;;;;;;5.22;92.38;100952.41;5031191;28;20038;-68
2022/09/30 07:03:56;;;;;;;24.40;16.20;;;;;;;5.35;92.42;100957.53;5031303;28;20537;-68
2022/09/30 07:06:25;;;;;;;22.05;16.27;;;;;;;5.47;92.32;100957.47;5027927;28;20049;-68
2022/09/30 07:08:53;;;;;;;26.27;17.88;;;;;;;5.59;92.54;100951.28;5030920;28;20049;-68
2022/09/30 07:11:20;;;;;;;23.58;17.45;;;;;;;5.71;92.49;100951.16;5030700;28;20860;-68
2022/09/30 07:13:48;;;;;;;26.92;16.73;;;;;;;5.83;92.50;100946.72;5030430;28;20511;-68
2022/09/30 07:16:17;;;;;;;26.00;16.58;;;;;;;5.96;92.44;100950.97;5030867;28;20045;-67
2022/09/30 07:18:45;;;;;;;23.38;18.17;;;;;;;6.09;92.74;100943.03;5030500;28;20068;-67
2022/09/30 07:21:15;;;;;;;28.80;18.50;;;;;;;6.22;92.49;100948.13;5029118;28;20042;-67
2022/09/30 07:23:46;;;;;;;26.83;19.17;;;;;;;6.36;92.55;100947.09;5026950;28;20049;-65
2022/09/30 07:26:21;;;;;;;31.83;20.48;;;;;;;6.49;92.65;100953.06;5025962;28;20131;-68
2022/09/30 07:28:50;;;;;;;28.00;19.90;;;;;;;6.62;92.70;100946.78;5026845;28;20822;-67
2022/09/30 07:31:21;;;;;;;28.42;19.77;;;;;;;6.73;92.48;100943.16;5027585;28;20049;-67
2022/09/30 07:34:06;;;;;;;29.50;19.33;;;;;;;6.82;92.66;100943.94;5029953;28;20089;-68
2022/09/30 07:36:37;;;;;;;33.83;20.85;;;;;;;6.99;92.72;100945.44;5030780;28;20530;-68
2022/09/30 07:39:08;;;;;;;30.35;20.13;;;;;;;7.11;92.52;100947.91;5025191;28;20076;-69
2022/09/30 07:41:38;;;;;;;28.48;19.27;;;;;;;7.26;92.51;100951.19;5025357;28;20038;-68
2022/09/30 07:44:13;;;;;;;28.20;19.75;;;;;;;7.36;92.37;100951.91;5029985;28;20046;-68
2022/09/30 07:46:42;;;;;;;31.08;19.20;;;;;;;7.48;92.55;100961.38;5029391;28;20129;-68
2022/09/30 07:49:14;;;;;;;35.10;20.27;;;;;;;7.60;92.38;100953.28;5029536;28;20053;-68
2022/09/30 07:51:44;;;;;;;27.67;20.45;;;;;;;7.73;92.64;100946.09;5029986;28;20105;-68
2022/09/30 07:54:18;;;;;;;32.22;21.60;;;;;;;7.85;91.98;100943.25;5030190;28;20041;-68
2022/09/30 07:56:45;;;;;;;28.98;18.92;;;;;;;7.97;92.03;100955.31;5033089;28;20511;-68
2022/09/30 07:59:38;;;;;;;31.13;20.52;;;;;;;8.09;91.77;100949.81;5028125;28;20504;-68
2022/09/30 08:02:09;;;;;;;32.92;20.80;;;;;;;8.21;91.77;100950.47;5030093;28;20050;-68
2022/09/30 08:04:37;;;;;;;25.73;19.17;;;;;;;8.31;91.68;100953.81;5030638;28;20045;-68
2022/09/30 08:07:11;;;;;;;29.00;18.92;;;;;;;8.43;91.36;100956.22;5032414;28;20042;-68
2022/09/30 08:09:38;;;;;;;30.42;20.45;;;;;;;8.52;91.37;100942.94;5030273;28;20140;-69
2022/09/30 08:12:05;;;;;;;43.63;21.55;;;;;;;8.65;90.96;100945.28;5030017;28;20076;-69
2022/09/30 08:14:34;;;;;;;30.05;20.48;;;;;;;8.76;90.77;100950.31;5029635;28;20118;-69
2022/09/30 08:17:01;;;;;;;30.08;20.48;;;;;;;8.86;90.63;100946.59;5030204;28;20540;-69
2022/09/30 08:19:32;;;;;;;30.33;19.55;;;;;;;8.97;90.43;100943.72;5029755;28;20042;-69
2022/09/30 08:21:59;;;;;;;28.33;20.70;;;;;;;9.09;90.43;100956.63;5031214;28;20462;-69
2022/09/30 08:24:26;;;;;;;30.70;21.42;;;;;;;9.22;90.33;100956.34;5030425;28;20097;-69
2022/09/30 08:26:54;;;;;;;29.10;21.13;;;;;;;9.37;90.25;100955.13;5030679;28;20041;-69
2022/09/30 08:29:21;;;;;;;31.65;21.58;;;;;;;9.47;89.81;100946.97;5030583;28;20088;-69
2022/09/30 08:32:11;;;;;;;35.08;21.50;;;;;;;9.59;89.77;100951.09;5029138;28;20049;-69
2022/09/30 08:34:39;;;;;;;30.88;22.02;;;;;;;9.70;89.53;100953.44;5010329;28;20109;-69
2022/09/30 08:37:07;;;;;;;32.42;22.58;;;;;;;9.81;89.61;100952.31;5011105;28;20081;-68
2022/09/30 08:39:37;;;;;;;30.27;21.77;;;;;;;9.94;89.14;100953.72;5021361;28;20042;-68
2022/09/30 08:42:53;;;;;;;31.83;22.60;;;;;;;10.09;89.05;100953.31;5034154;28;20046;-69
2022/09/30 08:46:01;;;;;;;43.35;25.15;;;;;;;10.26;88.57;100960.78;5034612;28;20126;-69
2022/09/30 08:49:19;;;;;;;35.47;23.53;;;;;;;10.39;88.62;100953.41;5033120;28;20042;-68
2022/09/30 08:51:49;;;;;;;32.88;24.10;;;;;;;10.57;88.65;100945.94;5012057;28;20764;-69
2022/09/30 08:54:23;;;;;;;31.52;23.73;;;;;;;10.74;87.75;100952.47;5013882;28;20582;-69
2022/09/30 08:56:52;;;;;;;31.30;23.92;;;;;;;10.87;87.90;100946.78;5016047;28;20042;-69
2022/09/30 08:59:37;;;;;;;35.65;23.52;;;;;;;10.99;87.71;100950.81;5032729;28;20052;-69
2022/09/30 09:02:26;;;;;;;;;;;;;;;11.10;87.68;100947.88;5034201;28;20053;-69
2022/09/30 09:04:59;;;;;;;37.58;23.90;;;;;;;11.25;87.53;100948.28;5034193;28;20867;-69
2022/09/30 09:07:32;;;;;;;30.73;23.43;;;;;;;11.41;87.33;100952.19;5034035;28;20050;-69
2022/09/30 09:10:24;;;;;;;32.60;24.15;;;;;;;11.54;86.99;100949.16;5033736;28;20064;-70
2022/09/30 09:13:11;;;;;;;30.88;24.55;;;;;;;11.64;86.73;100951.44;5032648;28;20093;-69
2022/09/30 09:15:46;;;;;;;33.00;24.80;;;;;;;11.78;86.45;100958.03;5033473;28;20041;-69
2022/09/30 09:18:35;;;;;;;32.35;24.63;;;;;;;11.90;85.49;100956.75;5032918;28;20054;-69
2022/09/30 09:21:28;;;;;;;31.33;24.13;;;;;;;12.06;85.21;100947.41;5033841;28;20096;-69
2022/09/30 09:24:00;;;;;;;33.50;24.00;;;;;;;12.19;84.50;100942.59;5033665;28;20066;-69
2022/09/30 09:26:35;;;;;;;31.50;24.27;;;;;;;12.28;83.84;100944.00;5033508;28;20104;-69
2022/09/30 09:29:37;;;;;;;30.95;23.58;;;;;;;12.40;83.74;100948.88;5033257;28;20066;-70
2022/09/30 09:32:17;;;;;;;34.47;24.40;;;;;;;12.56;83.67;100954.47;5033203;28;20050;-69
2022/09/30 09:34:51;;;;;;;34.20;24.95;;;;;;;12.69;82.81;100948.72;5033137;28;20049;-69
2022/09/30 09:40:56;;;;;;;38.20;24.13;;;;;;;12.99;82.40;100945.81;5031768;28;20037;-70
2022/09/30 09:43:47;;;;;;;33.95;23.85;;;;;;;13.07;81.73;100953.47;5024403;28;20073;-68
2022/09/30 09:47:06;;;;;;;33.10;23.42;;;;;;;13.19;81.30;100948.56;5022172;28;20052;-68
2022/09/30 09:49:37;;;;;;;28.70;21.27;;;;;;;13.34;81.15;100943.56;5029709;28;20050;-68
2022/09/30 09:52:11;;;;;;;;;;;;;;;13.45;80.70;100951.97;5030215;28;21017;-68
2022/09/30 09:54:46;;;;;;;31.75;19.90;;;;;;;13.57;79.58;100944.44;5031419;28;19925;-68
2022/09/30 09:57:23;;;;;;;28.65;21.20;;;;;;;13.70;78.94;100950.09;5027796;28;20050;-68
2022/09/30 10:03:22;;;;;;;32.03;21.52;;;;;;;13.96;79.25;100955.16;5031079;28;20050;-68
2022/09/30 10:06:11;;;;;;;50.90;37.28;;;;;;;14.12;78.88;100946.53;5031349;28;20042;-68
2022/09/30 10:08:55;;;;;;;29.17;20.83;;;;;;;14.25;78.47;100957.47;5033129;28;20065;-69
2022/09/30 10:11:26;;;;;;;27.17;18.27;;;;;;;14.37;76.86;100964.03;5033193;28;20038;-69
2022/09/30 10:13:59;;;;;;;25.13;19.05;;;;;;;14.43;77.04;100956.69;5030003;28;20041;-68
2022/09/30 10:16:36;;;;;;;25.47;19.43;;;;;;;14.51;76.45;100960.75;5031509;28;20141;-68
2022/09/30 10:19:22;;;;;;;23.80;17.77;;;;;;;14.63;75.91;100956.69;5030393;28;20507;-68
2022/09/30 10:21:49;;;;;;;22.00;16.17;;;;;;;14.67;71.22;100951.19;5031452;28;20496;-69
2022/09/30 10:24:29;;;;;;;25.70;16.52;;;;;;;14.70;72.67;100943.09;5030544;28;20040;-69
2022/09/30 10:26:56;;;;;;;25.67;18.52;;;;;;;14.77;73.59;100950.78;5030629;28;20559;-69
2022/09/30 10:29:32;;;;;;;20.45;16.13;;;;;;;14.86;73.75;100945.91;5031534;28;20113;-69
2022/09/30 10:32:08;;;;;;;19.00;14.38;;;;;;;14.97;72.15;100949.88;5030542;28;20849;-69
2022/09/30 10:35:16;;;;;;;25.63;16.60;;;;;;;15.10;70.85;100945.72;5030546;28;20042;-69
2022/09/30 10:37:53;;;;;;;25.63;18.45;;;;;;;15.24;71.80;100941.50;5030573;28;20038;-69
2022/09/30 10:40:28;;;;;;;24.35;18.92;;;;;;;15.35;71.30;100945.38;5027186;28;20050;-69
2022/09/30 10:42:57;;;;;;;19.83;14.88;;;;;;;15.43;70.32;100934.34;5028755;28;20042;-67
2022/09/30 10:45:43;;;;;;;26.02;15.85;;;;;;;15.50;70.00;100930.47;5029910;28;20069;-67
2022/09/30 10:48:33;;;;;;;22.50;16.48;;;;;;;15.60;70.38;100927.38;5024074;28;20042;-68
2022/09/30 10:51:02;;;;;;;17.65;12.82;;;;;;;15.65;70.78;100936.81;5029072;28;20042;-68
2022/09/30 10:53:33;;;;;;;16.00;12.88;;;;;;;15.74;68.85;100940.81;5037514;28;20534;-68
2022/09/30 10:56:04;;;;;;;12.57;11.07;;;;;;;15.82;67.82;100927.13;5030101;28;20121;-68
2022/09/30 10:58:55;;;;;;;14.25;11.05;;;;;;;15.93;66.58;100935.44;5027853;28;20045;-70
2022/09/30 11:02:38;;;;;;;17.27;13.57;;;;;;;16.03;65.87;100935.81;5028116;28;20041;-68
2022/09/30 11:05:23;;;;;;;10.60;9.05;;;;;;;16.18;64.83;100944.78;4986321;28;20105;-68
2022/09/30 11:08:16;;;;;;;;;;;;;;;16.26;67.05;100941.75;5030901;28;20038;-68
2022/09/30 11:11:10;;;;;;;13.52;8.18;;;;;;;16.40;64.69;100941.00;5027753;28;19925;-68
2022/09/30 11:13:57;;;;;;;10.43;8.53;;;;;;;16.44;63.75;100935.44;5029649;28;20046;-69
2022/09/30 11:16:53;;;;;;;12.48;8.23;;;;;;;16.56;65.23;100944.59;5027388;28;20791;-68
2022/09/30 11:19:59;;;;;;;;;;;;;;;16.67;64.82;100938.66;5029622;28;20464;-68
2022/09/30 11:22:38;;;;;;;;;;;;;;;16.72;63.02;100941.97;5029508;28;20386;-68
2022/09/30 11:25:13;;;;;;;14.52;7.70;;;;;;;16.83;61.39;100936.03;5030272;28;19974;-69
2022/09/30 11:28:10;;;;;;;14.70;8.43;;;;;;;16.96;59.65;100927.41;5029712;28;20104;-68
2022/09/30 11:31:00;;;;;;;15.95;8.77;;;;;;;16.84;59.38;100927.09;5031727;28;20090;-70
2022/09/30 11:34:09;;;;;;;15.23;10.05;;;;;;;16.56;60.59;100928.63;5026814;28;20049;-69
2022/09/30 11:37:12;;;;;;;11.82;8.75;;;;;;;16.39;62.15;100918.88;5027469;28;20042;-69
2022/09/30 11:40:11;;;;;;;12.40;9.50;;;;;;;16.37;61.12;100931.41;5024893;28;20120;-69
2022/09/30 11:42:54;;;;;;;12.40;8.77;;;;;;;16.57;61.53;100914.38;5027600;28;20061;-69
2022/09/30 11:46:06;;;;;;;12.65;8.50;;;;;;;16.81;60.85;100921.09;5028026;28;20034;-69
2022/09/30 11:49:20;;;;;;;13.60;8.98;;;;;;;16.63;62.08;100923.84;5028488;28;20045;-69
2022/09/30 11:52:03;;;;;;;17.23;8.65;;;;;;;16.62;59.21;100911.47;5029503;28;20281;-69
2022/09/30 11:54:54;;;;;;;12.88;8.88;;;;;;;16.88;59.44;100914.47;5029712;28;20045;-69
2022/09/30 11:58:22;;;;;;;23.05;16.17;;;;;;;17.15;60.98;100917.44;5027424;28;20566;-69
2022/09/30 12:01:33;;;;;;;24.92;17.30;;;;;;;17.08;61.48;100916.06;5029117;28;20042;-69
2022/09/30 12:04:17;;;;;;;13.77;7.38;;;;;;;16.91;58.29;100909.00;5033358;28;20487;-69
2022/09/30 12:07:17;;;;;;;12.80;7.10;;;;;;;16.85;59.38;100911.97;5024099;28;20060;-68
2022/09/30 12:10:02;;;;;;;12.68;6.70;;;;;;;17.03;59.35;100907.47;5026844;28;20049;-69
2022/09/30 12:12:31;;;;;;;;;;;;;;;17.04;58.32;100901.19;5029524;28;20041;-69
2022/09/30 12:15:02;;;;;;;12.90;5.55;;;;;;;17.00;60.00;100903.19;5032774;28;19995;-68
2022/09/30 12:17:39;;;;;;;18.23;11.02;;;;;;;17.11;58.40;100897.22;5029829;28;20058;-69